KIXD Airport Information

Runway Information
Runway 04 Length 5130 ft width 100 ft
Elevation 1061 ft Threshold ft Heading 47
Runway 22 Length 5130 ft Width 100 ft
Elevation 1087 ft Threshold ft Heading 227
Runway 18 Length 7339 ft width 190 ft
Elevation 1085 ft Threshold ft Heading 180
Runway 36 Length 7339 ft Width 190 ft
Elevation 1051 ft Threshold ft Heading 360
Airport Frequencies
Type A/D Name KANSAS CIT Frequency 118.9 MHZ
Type ASOS Name ASOS Frequency 135.325 MHZ
Type CTAF Name CTAF Frequency 133 MHZ
Type GND Name GND Frequency 124.3 MHZ
Type OPS Name ARMY OPS Frequency 46.9 MHZ
Type TWR Name TWR Frequency 133 MHZ
Type UNIC Name UNICOM Frequency 122.95 MHZ
Airport Navaids
Airport Weather Information & NOTAM
ADDS - METARS form results

(1703 UTC 16 August 2022)
Data provider http://aviationweather.gov/metar/data/
 
METAR text: KIXD 161653Z 04005KT 10SM -RA BKN008 OVC021 20/19 A3005 RMK AO2 CIG 005V012 SLP166 P0002 T02000189
Conditions at: KIXD (OLATHE/INDUSTRIA, KS, US) observed 1653 UTC 16 August 2022
Temperature: 20.0°C (68°F)
Dewpoint: 18.9°C (66°F) [RH = 93%]
Pressure (altimeter): 30.05 inches Hg (1017.7 mb)
[Sea-level pressure: 1016.6 mb]
Winds: from the NE (40 degrees) at 6 MPH (5 knots; 2.6 m/s)
Visibility: 10 or more miles (16+ km)
Ceiling: 800 feet AGL
Clouds: broken clouds at 800 feet AGL
overcast cloud deck at 2100 feet AGL
Weather: -RA  (light rain)

METAR text: KIXD 161634Z 08007KT 10SM -RA BKN006 OVC020 19/18 A3003 RMK AO2 P0002 T01940183
Conditions at: KIXD (OLATHE/INDUSTRIA, KS, US) observed 1634 UTC 16 August 2022
Temperature: 19.4°C (67°F)
Dewpoint: 18.3°C (65°F) [RH = 93%]
Pressure (altimeter): 30.03 inches Hg (1017.0 mb)
Winds: from the E (80 degrees) at 8 MPH (7 knots; 3.6 m/s)
Visibility: 10 or more miles (16+ km)
Ceiling: 600 feet AGL
Clouds: broken clouds at 600 feet AGL
overcast cloud deck at 2000 feet AGL
Weather: -RA  (light rain)

METAR text: KIXD 161616Z 09006G14KT 8SM -RA SCT006 BKN019 OVC075 19/18 A3003 RMK AO2 LTG DSNT S P0002 T01940183
Conditions at: KIXD (OLATHE/INDUSTRIA, KS, US) observed 1616 UTC 16 August 2022
Temperature: 19.4°C (67°F)
Dewpoint: 18.3°C (65°F) [RH = 93%]
Pressure (altimeter): 30.03 inches Hg (1017.0 mb)
Winds: from the E (90 degrees) at 7 MPH (6 knots; 3.1 m/s)
gusting to 16 MPH (14 knots; 7.2 m/s)
Visibility: 8 miles (13 km)
Ceiling: 1900 feet AGL
Clouds: scattered clouds at 600 feet AGL
broken clouds at 1900 feet AGL
overcast cloud deck at 7500 feet AGL
Weather: -RA  (light rain)

Forecast for: KIXD (OLATHE/INDUSTRIA, KS, US)
Text: KIXD 161546Z 1616/1712 10006KT 6SM -SHRA BR SCT008 OVC012
Forecast period: 1600 to 1700 UTC 16 August 2022
Forecast type: FROM: standard forecast or significant change
Winds: from the E (100 degrees) at 7 MPH (6 knots; 3.1 m/s)
Visibility: 6 miles (10 km)
Ceiling: 1200 feet AGL
Clouds: scattered clouds at 800 feet AGL
overcast cloud deck at 1200 feet AGL
Weather: -SHRA BR  (light rain showers, mist)
Text: TEMPO 1616/1617 3SM -RA BR OVC006
Forecast period: 1600 to 1700 UTC 16 August 2022
Forecast type: TEMPORARY: The following changes expected for less than half the time period
Visibility: 3 miles (5 km)
Ceiling: 600 feet AGL
Clouds: overcast cloud deck at 600 feet AGL
Weather: -RA BR  (light rain, mist)
Text: FM161700 08006KT P6SM VCSH OVC009
Forecast period: 1700 to 2200 UTC 16 August 2022
Forecast type: FROM: standard forecast or significant change
Winds: from the E (80 degrees) at 7 MPH (6 knots; 3.1 m/s)
Visibility: 6 or more miles (10+ km)
Ceiling: 900 feet AGL
Clouds: overcast cloud deck at 900 feet AGL
Weather: VCSH  (showers in vicinity)
Text: FM162200 08009KT P6SM BKN015
Forecast period: 2200 UTC 16 August 2022 to 0200 UTC 17 August 2022
Forecast type: FROM: standard forecast or significant change
Winds: from the E (80 degrees) at 10 MPH (9 knots; 4.6 m/s)
Visibility: 6 or more miles (10+ km)
Ceiling: 1500 feet AGL
Clouds: broken clouds at 1500 feet AGL
Weather: no significant weather forecast for this period
Text: FM170200 07006KT P6SM BKN060
Forecast period: 0200 to 1200 UTC 17 August 2022
Forecast type: FROM: standard forecast or significant change
Winds: from the ENE (70 degrees) at 7 MPH (6 knots; 3.1 m/s)
Visibility: 6 or more miles (10+ km)
Ceiling: 6000 feet AGL
Clouds: broken clouds at 6000 feet AGL
Weather: no significant weather forecast for this period